ADDS METAR Data INFO
IDs: Format: Raw Decoded Include TAF

Data at: 2108 UTC 19 Jul 2018

KHTO 192055Z AUTO 18005KT 10SM CLR 24/12 A3008 RMK AO2 T02370119
KHTO 192035Z AUTO 19005KT 10SM CLR 24/14 A3008 RMK AO2 T02390143
KHTO 192015Z AUTO 14005KT 10SM CLR 24/14 A3008 RMK AO2 T02360135
KHTO 191955Z AUTO 15006KT 10SM CLR 24/14 A3008 RMK AO2 T02390140
KHTO 191935Z AUTO 13007KT 10SM CLR 24/14 A3008 RMK AO2 T02370142
KHTO 191915Z AUTO 13008KT 10SM CLR 23/15 A3009 RMK AO2 T02330148
KHTO 191855Z AUTO 17005KT 10SM CLR 24/15 A3009 RMK AO2 T02400147
KHTO 191835Z AUTO 14007KT 10SM CLR 23/14 A3009 RMK AO2 T02340143
KHTO 191815Z AUTO 16007KT 10SM CLR 24/14 A3010 RMK AO2 T02350144
KHTO 191755Z AUTO 14007KT 10SM CLR 24/14 A3010 RMK AO2 T02380141 10246 20194
KHTO 191735Z AUTO 15006KT 10SM CLR 24/14 A3010 RMK AO2 T02420138
KHTO 191715Z AUTO 13005KT 10SM CLR 24/14 A3010 RMK AO2 T02350137
KHTO 191655Z AUTO 16008KT 10SM CLR 23/14 A3011 RMK AO2 T02290135
KHTO 191635Z AUTO 19007KT 10SM CLR 23/14 A3010 RMK AO2 T02340137
KHTO 191615Z AUTO 12005KT 10SM CLR 24/14 A3011 RMK AO2 T02420135
KHTO 191555Z AUTO 17003KT 10SM CLR 24/13 A3011 RMK AO2 T02360129
KHTO 191535Z AUTO 00000KT 10SM CLR 23/12 A3010 RMK AO2 T02340115
KHTO 191515Z AUTO 00000KT 10SM CLR 23/12 A3010 RMK AO2 T02320120
KHTO 191455Z AUTO 00000KT 10SM CLR 23/12 A3010 RMK AO2 T02280120
KHTO 191435Z AUTO 06004KT 10SM CLR 22/12 A3009 RMK AO2 T02220116
KHTO 191415Z AUTO 10005KT 10SM CLR 22/12 A3009 RMK AO2 T02210119
KHTO 191355Z AUTO 07004KT 10SM CLR 22/12 A3009 RMK AO2 T02200121
KHTO 191335Z AUTO 07005KT 10SM CLR 22/12 A3009 RMK AO2 T02160120
KHTO 191315Z AUTO 04006KT 10SM CLR 22/13 A3009 RMK AO2 T02150129
KHTO 191255Z AUTO 03006KT 10SM CLR 21/13 A3008 RMK AO2 T02060128
KHTO 191235Z AUTO 02005KT 10SM CLR 20/13 A3008 RMK AO2 T02020127
KHTO 191215Z AUTO 03006KT 10SM CLR 20/13 A3007 RMK AO2 T02000127
KHTO 191155Z AUTO 01008KT 10SM CLR 19/13 A3007 RMK AO2 T01930126 10193 20130
KHTO 191135Z AUTO 36004KT 10SM CLR 19/13 A3006 RMK AO2 T01890127
KHTO 191115Z AUTO 01003KT 10SM CLR 18/12 A3005 RMK AO2 T01800123
KHTO 191055Z AUTO 00000KT 10SM CLR 17/13 A3005 RMK AO2 T01700125
KHTO 191035Z AUTO 36003KT 10SM CLR 16/12 A3005 RMK AO2 T01600120
KHTO 191015Z AUTO 00000KT 10SM CLR 15/12 A3004 RMK AO2 T01540116
KHTO 190955Z AUTO 35003KT 10SM CLR 14/12 A3004 RMK AO2 T01380116
KHTO 190935Z AUTO 34003KT 10SM CLR 13/11 A3004 RMK AO2 T01320114
KHTO 190915Z AUTO 36003KT 10SM CLR 13/12 A3003 RMK AO2 T01300117
KHTO 190855Z AUTO 00000KT 10SM CLR 14/12 A3003 RMK AO2 T01370120
KHTO 190835Z AUTO 01003KT 10SM CLR 14/12 A3002 RMK AO2 T01440120
KHTO 190815Z AUTO 01003KT 10SM CLR 15/12 A3002 RMK AO2 T01500120
KHTO 190755Z AUTO 01003KT 10SM CLR 15/12 A3001 RMK AO2 T01500120
KHTO 190735Z AUTO 35003KT 10SM CLR 15/12 A3001 RMK AO2 T01500119
KHTO 190715Z AUTO 36003KT 10SM CLR 15/12 A3001 RMK AO2 T01490118
KHTO 190655Z AUTO 01004KT 10SM CLR 14/12 A3000 RMK AO2 T01390120
KHTO 190635Z AUTO 01004KT 10SM CLR 14/12 A3000 RMK AO2 T01410118
KHTO 190615Z AUTO 35004KT 10SM CLR 15/12 A2999 RMK AO2 T01450117
KHTO 190555Z AUTO 00000KT 10SM CLR 14/12 A2999 RMK AO2 T01380118 10239 20138
KHTO 190535Z AUTO 00000KT 10SM CLR 14/13 A2999 RMK AO2 T01430125
KHTO 190515Z AUTO 00000KT 10SM CLR 15/13 A2998 RMK AO2 T01470129
KHTO 190455Z AUTO 00000KT 10SM CLR 16/13 A2998 RMK AO2 T01560131 402810150
KHTO 190435Z AUTO 35003KT 10SM CLR 15/13 A2997 RMK AO2 T01510130
KHTO 190415Z AUTO 00000KT 10SM CLR 16/13 A2997 RMK AO2 T01550132
KHTO 190355Z AUTO 00000KT 10SM CLR 17/13 A2996 RMK AO2 T01650134
KHTO 190335Z AUTO 35003KT 10SM CLR 17/13 A2996 RMK AO2 T01740132
KHTO 190315Z AUTO 36003KT 10SM CLR 18/13 A2996 RMK AO2 T01820134
KHTO 190255Z AUTO 36003KT 10SM CLR 20/13 A2995 RMK AO2 T01960132
KHTO 190235Z AUTO 35004KT 10SM CLR 20/14 A2995 RMK AO2 T02010136
KHTO 190215Z AUTO 36004KT 10SM CLR 20/14 A2995 RMK AO2 T01950143
KHTO 190155Z AUTO 34004KT 10SM CLR 20/14 A2994 RMK AO2 T01960144
KHTO 190135Z AUTO 35003KT 10SM CLR 20/15 A2994 RMK AO2 T01950150
KHTO 190115Z AUTO 36003KT 10SM CLR 20/15 A2993 RMK AO2 T02000150
KHTO 190055Z AUTO 00000KT 10SM CLR 21/15 A2992 RMK AO2 T02120150
KHTO 190035Z AUTO 34003KT 10SM SCT065 22/15 A2991 RMK AO2 T02200152
KHTO 190015Z AUTO 00000KT 10SM SCT065 23/16 A2991 RMK AO2 T02300158
KHTO 182355Z AUTO 33003KT 10SM SCT065 24/16 A2990 RMK AO2 T02420160 10281 20242
KHTO 182335Z AUTO 35004KT 10SM SCT065 26/16 A2989 RMK AO2 T02550161
KHTO 182315Z AUTO 00000KT 10SM BKN065 26/17 A2989 RMK AO2 T02600166
KHTO 182255Z AUTO 34003KT 10SM BKN065 27/16 A2988 RMK AO2 T02650157
KHTO 182235Z AUTO 00000KT 10SM SCT055 SCT065 26/15 A2987 RMK AO2 T02640147
KHTO 182215Z AUTO 02005KT 10SM SCT055 SCT075 27/14 A2986 RMK AO2 T02690141
KHTO 182155Z AUTO 01003KT 10SM BKN055 BKN075 27/14 A2986 RMK AO2 T02710143
KHTO 182135Z AUTO 36003KT 10SM SCT055 SCT075 27/14 A2987 RMK AO2 T02700138
KHTO 182115Z AUTO 01006KT 10SM SCT055 27/14 A2986 RMK AO2 T02730140
KHTO 182055Z AUTO 02006KT 10SM CLR 28/14 A2986 RMK AO2 T02760139
KHTO 182035Z AUTO 36006KT 10SM CLR 28/13 A2986 RMK AO2 T02750134
KHTO 182015Z AUTO 34008KT 10SM CLR 28/13 A2986 RMK AO2 T02760131
KHTO 181955Z AUTO 34006KT 10SM CLR 28/13 A2986 RMK AO2 T02760129
KHTO 181935Z AUTO 35009G14KT 10SM CLR 28/14 A2986 RMK AO2 T02780140
KHTO 181915Z AUTO 34009KT 10SM CLR 28/14 A2986 RMK AO2 T02770140
KHTO 181855Z AUTO 35008G14KT 300V010 10SM CLR 28/14 A2986 RMK AO2 T02770143
KHTO 181835Z AUTO 34006KT 10SM CLR 28/15 A2986 RMK AO2 T02750150
KHTO 181815Z AUTO 34009KT 10SM CLR 27/16 A2986 RMK AO2 T02730158
KHTO 181755Z AUTO 01007KT 10SM CLR 27/16 A2986 RMK AO2 T02710160 10272 20218
KHTO 181735Z AUTO 03011G15KT 10SM CLR 27/16 A2986 RMK AO2 T02710158
KHTO 181715Z AUTO 02009KT 10SM CLR 27/16 A2986 RMK AO2 T02670158
KHTO 181655Z AUTO 35009KT 10SM CLR 27/16 A2986 RMK AO2 T02680159
KHTO 181635Z AUTO 35009G15KT 10SM CLR 26/15 A2986 RMK AO2 T02640152
KHTO 181615Z AUTO 36007KT 10SM CLR 27/16 A2986 RMK AO2 T02670160
KHTO 181555Z AUTO 36008G16KT 10SM SCT060 SCT080 26/16 A2986 RMK AO2 T02620158
KHTO 181535Z AUTO 01010G14KT 10SM SCT070 BKN080 26/16 A2986 RMK AO2 T02580159
KHTO 181515Z AUTO 36008G14KT 10SM BKN070 25/16 A2986 RMK AO2 T02470163
KHTO 181455Z AUTO 36011G15KT 10SM CLR 25/17 A2986 RMK AO2 T02540169
KHTO 181435Z AUTO 02010G16KT 10SM CLR 25/17 A2986 RMK AO2 T02470169
KHTO 181415Z AUTO 02007G16KT 10SM CLR 24/18 A2986 RMK AO2 T02440176
KHTO 181355Z AUTO 01011G18KT 10SM CLR 24/18 A2985 RMK AO2 T02390180
KHTO 181335Z AUTO 36011G16KT 10SM CLR 24/18 A2985 RMK AO2 T02360184
KHTO 181315Z AUTO 36008G16KT 10SM CLR 23/19 A2984 RMK AO2 LTG DSNT SE T02340190
KHTO 181255Z AUTO 36011G16KT 10SM CLR 23/19 A2984 RMK AO2 T02300192
KHTO 181235Z AUTO 36010G14KT 10SM CLR 23/20 A2983 RMK AO2 T02260195
KHTO 181215Z AUTO 34009KT 10SM CLR 22/19 A2983 RMK AO2 T02220193
KHTO 181155Z AUTO 35008KT 10SM CLR 22/19 A2983 RMK AO2 70094 T02180194 10218 20200
KHTO 181135Z AUTO 35008G18KT 10SM CLR 22/19 A2982 RMK AO2 T02170194
KHTO 181115Z AUTO 35005KT 10SM SCT080 21/19 A2981 RMK AO2 T02130192
KHTO 181055Z AUTO 35003KT 10SM SCT080 21/19 A2981 RMK AO2 T02050189
KHTO 181035Z AUTO 34004KT 10SM BKN080 20/18 A2981 RMK AO2 T02010183
KHTO 181015Z AUTO 33004KT 10SM OVC075 20/18 A2981 RMK AO2 LTG DSNT SE T02020184
KHTO 180955Z AUTO 33004KT 10SM BKN075 OVC095 20/19 A2980 RMK AO2 T02020186
KHTO 180935Z AUTO 33004KT 10SM SCT060 SCT075 OVC095 21/19 A2980 RMK AO2 T02050187
KHTO 180915Z AUTO 33004KT 10SM SCT060 BKN070 OVC095 21/19 A2980 RMK AO2 T02080188